createdAt,value
2022-11-12T00:01:38.015Z,0
2022-11-12T00:06:39.937Z,0
2022-11-12T00:11:42.152Z,0
2022-11-12T00:16:44.008Z,0
2022-11-12T00:21:45.807Z,0
2022-11-12T00:26:47.735Z,0
2022-11-12T00:31:49.641Z,0.88715
2022-11-12T00:36:51.314Z,0
2022-11-12T00:41:53.347Z,0
2022-11-12T00:46:54.886Z,0
2022-11-12T00:51:56.408Z,0
2022-11-12T00:56:58.452Z,0
2022-11-12T01:02:00.005Z,0
2022-11-12T01:07:01.648Z,0
2022-11-12T01:12:03.675Z,0
2022-11-12T01:17:05.249Z,0
2022-11-12T01:22:07.028Z,0
2022-11-12T01:27:08.813Z,0
2022-11-12T01:32:10.354Z,0
2022-11-12T01:37:11.882Z,0
2022-11-12T01:42:13.705Z,0
2022-11-12T01:47:15.464Z,0
2022-11-12T01:52:17.105Z,0
2022-11-12T01:57:18.676Z,0
2022-11-12T02:02:20.148Z,0
2022-11-12T02:07:21.633Z,0
2022-11-12T02:12:23.647Z,0
2022-11-12T02:17:25.165Z,0
2022-11-12T02:22:26.643Z,0
2022-11-12T02:27:28.126Z,0
2022-11-12T02:32:29.698Z,0
2022-11-12T02:37:31.321Z,0
2022-11-12T02:42:33.170Z,0.88715
2022-11-12T02:47:34.935Z,0.88715
2022-11-12T02:52:36.638Z,0.88715
2022-11-12T02:57:38.455Z,1.16185
2022-11-12T03:02:40.376Z,1.3463
2022-11-12T03:07:41.891Z,3.67
2022-11-12T03:12:44.105Z,8.13295
2022-11-12T03:17:46.658Z,8.87075
2022-11-12T03:23:04.908Z,15.60225
2022-11-12T03:28:14.850Z,24.04895
2022-11-12T03:33:20.777Z,29.379
2022-11-12T03:38:24.009Z,43.76425
2022-11-12T03:43:31.392Z,59.975
2022-11-12T03:48:48.043Z,63.645
2022-11-12T03:53:54.194Z,86.71655
2022-11-12T03:58:56.510Z,99.2763
2022-11-12T04:04:01.954Z,128.23125
2022-11-12T04:09:09.547Z,156.63285
2022-11-12T04:14:15.224Z,179.4648
2022-11-12T04:19:18.065Z,231.04825
2022-11-12T04:24:28.539Z,268.4309
2022-11-12T04:29:46.612Z,303.50885
2022-11-12T04:34:49.203Z,354.8527
2022-11-12T04:45:16.221Z,399.33575
2022-11-12T04:51:00.197Z,351.312
2022-11-12T04:56:16.237Z,356.03355
2022-11-12T05:01:21.548Z,387.12775
2022-11-12T05:06:30.197Z,450.66245
2022-11-12T05:11:36.431Z,521.501
2022-11-12T05:16:49.672Z,539.16835
2022-11-12T05:21:52.083Z,590.052
2022-11-12T05:27:00.081Z,529.6168
2022-11-12T05:32:19.158Z,419.47695
2022-11-12T05:37:55.036Z,335.59945
2022-11-12T05:42:58.521Z,372.5409
2022-11-12T05:48:04.061Z,312.4176
2022-11-12T05:53:05.857Z,291.17155
2022-11-12T05:58:07.377Z,264.6696
2022-11-12T06:03:08.819Z,231.43615
2022-11-12T06:08:10.542Z,204.12225
2022-11-12T06:13:11.996Z,200.5074
2022-11-12T06:18:13.494Z,180.5525
2022-11-12T06:23:15.544Z,243.42355
2022-11-12T06:28:16.968Z,291.65075
2022-11-12T06:33:18.514Z,334.62205
2022-11-12T06:38:20.280Z,388.6775
2022-11-12T06:43:21.820Z,357.3627
2022-11-12T06:48:23.373Z,305.7964
2022-11-12T06:53:25.395Z,331.745
2022-11-12T06:58:27.093Z,365.8094
2022-11-12T07:03:28.686Z,389.37915
2022-11-12T07:08:30.590Z,391.758
2022-11-12T07:13:32.152Z,370.62225
2022-11-12T07:18:33.894Z,348.878
2022-11-12T07:23:36.114Z,338.03345
2022-11-12T07:28:37.903Z,322.6708
2022-11-12T07:33:39.910Z,298.5477
2022-11-12T07:38:41.719Z,285.5639
2022-11-12T07:43:43.568Z,273.26275
2022-11-12T07:48:45.446Z,277.4861
2022-11-12T07:53:47.396Z,285.6932
2022-11-12T07:58:48.866Z,305.1689
2022-11-12T08:03:50.363Z,342.82915
2022-11-12T08:08:52.160Z,375.50925
2022-11-12T08:13:53.937Z,380.5997
2022-11-12T08:18:56.747Z,373.7389
2022-11-12T08:23:58.381Z,345.26315
2022-11-12T08:29:03.932Z,331.30195
2022-11-12T08:34:08.469Z,350.77765
2022-11-12T08:39:10.014Z,407.10165
2022-11-12T08:44:11.830Z,500.6257
2022-11-12T08:49:13.599Z,586.12525
2022-11-12T08:54:15.293Z,649.40135
2022-11-12T08:59:17.078Z,749.76535
2022-11-12T09:04:18.686Z,791.9437
2022-11-12T09:09:20.658Z,730.2725
2022-11-12T09:14:22.191Z,627.58295
2022-11-12T09:19:24.313Z,713.3791
2022-11-12T09:24:26.301Z,462.64985
2022-11-12T09:29:28.202Z,348.3608
2022-11-12T09:34:29.993Z,315.81
2022-11-12T09:39:31.806Z,292.36955
2022-11-12T09:44:36.764Z,228.1522
2022-11-12T09:49:40.733Z,265.2591
2022-11-12T09:54:42.560Z,625.7936
2022-11-12T09:59:44.376Z,534.5571
2022-11-12T10:04:46.237Z,382.22175
2022-11-12T10:09:48.035Z,397.6224
2022-11-12T10:14:49.941Z,279.3686
2022-11-12T10:19:51.895Z,203.51375
2022-11-12T10:24:53.792Z,282.3921
2022-11-12T10:29:55.756Z,279.6082
2022-11-12T10:34:57.959Z,266.3848
2022-11-12T10:39:59.801Z,407.69115
2022-11-12T10:45:01.731Z,512.92315
2022-11-12T10:50:03.668Z,536.181
2022-11-12T10:55:05.085Z,303.6363
2022-11-12T11:00:06.653Z,90.3124
2022-11-12T11:05:08.175Z,59.7544
2022-11-12T11:10:09.827Z,176.34815
2022-11-12T11:15:11.428Z,559.30955
2022-11-12T11:20:13.366Z,567.3285
2022-11-12T11:25:14.996Z,486.47635
2022-11-12T11:30:16.910Z,270.44085
2022-11-12T11:35:18.390Z,200.709
2022-11-12T11:40:20.463Z,223.89085
2022-11-12T11:45:22.286Z,215.6286
2022-11-12T11:50:24.145Z,226.399
2022-11-12T11:55:25.911Z,230.49305
2022-11-12T12:00:27.741Z,229.3122
2022-11-12T12:05:29.427Z,175.38605
2022-11-12T12:10:53.312Z,144.9745
2022-11-12T12:16:03.416Z,116.42645
2022-11-12T12:21:05.325Z,194.0878
2022-11-12T12:26:07.487Z,214.6512
2022-11-12T12:31:09.240Z,234.8837
2022-11-12T12:36:10.724Z,271.78715
2022-11-12T12:41:12.601Z,296.40845
2022-11-12T12:46:14.557Z,412.07995
2022-11-12T12:51:16.614Z,530.96125
2022-11-12T12:56:18.532Z,791.4075
2022-11-12T13:01:20.332Z,1038.6359
2022-11-12T13:06:21.870Z,790.2628
2022-11-12T13:11:23.501Z,735.43525
2022-11-12T13:16:25.160Z,657.01895
2022-11-12T13:21:26.806Z,455.18055
2022-11-12T13:26:28.331Z,300.0043
2022-11-12T13:31:30.083Z,200.0282
2022-11-12T13:36:31.548Z,227.0835
2022-11-12T13:41:33.228Z,492.41675
2022-11-12T13:46:35.357Z,319.6283
2022-11-12T13:51:39.398Z,213.91525
2022-11-12T13:56:41.632Z,158.97555
2022-11-12T14:01:43.461Z,300.67165
2022-11-12T14:06:45.418Z,399.6532
2022-11-12T14:11:47.362Z,486.92125
2022-11-12T14:16:49.086Z,359.77585
2022-11-12T14:21:50.956Z,369.9016
2022-11-12T14:26:53.163Z,353.94945
2022-11-12T14:31:55.169Z,660.7821
2022-11-12T14:36:58.487Z,495.1835
2022-11-12T14:42:00.867Z,537.86005
2022-11-12T14:47:02.688Z,558.73535
2022-11-12T14:52:04.825Z,535.5155
2022-11-12T14:57:06.463Z,416.2653
2022-11-12T15:02:28.644Z,317.7268
2022-11-12T15:07:34.507Z,239.7517
2022-11-12T15:12:36.285Z,222.3981
2022-11-12T15:17:38.183Z,211.8863
2022-11-12T15:22:40.015Z,150.4357
2022-11-12T15:27:48.017Z,88.06285
2022-11-12T15:33:00.252Z,115.4319
2022-11-12T15:38:12.174Z,152.35435
2022-11-12T15:43:13.893Z,169.1013
2022-11-12T15:48:15.459Z,168.52895
2022-11-12T15:53:17.314Z,149.1084
2022-11-12T15:58:19.101Z,122.0341
2022-11-12T16:03:20.859Z,98.2799
2022-11-12T16:08:22.916Z,76.92355
2022-11-12T16:13:25.006Z,54.5898
2022-11-12T16:18:27.179Z,40.44415
2022-11-12T16:23:29.292Z,29.30485
2022-11-12T16:28:31.236Z,17.44675
2022-11-12T16:33:33.002Z,9.00005
2022-11-12T16:38:34.943Z,2.42955
2022-11-12T16:43:37.186Z,1.53075
2022-11-12T16:48:39.265Z,1.16185
2022-11-12T16:53:41.219Z,0.88715
2022-11-12T16:58:43.049Z,0.88715
2022-11-12T17:03:45.445Z,0
2022-11-12T17:08:47.603Z,0.88715
2022-11-12T17:13:49.561Z,0.88715
2022-11-12T17:18:51.497Z,0
2022-11-12T17:23:53.578Z,0
2022-11-12T17:29:02.206Z,0
2022-11-12T17:34:04.420Z,0
2022-11-12T17:39:07.291Z,0
2022-11-12T17:44:10.311Z,0
2022-11-12T17:49:11.894Z,0
2022-11-12T17:54:13.640Z,0.88715
2022-11-12T17:59:15.382Z,0
2022-11-12T18:04:17.292Z,0
2022-11-12T18:09:19.651Z,0.88715
2022-11-12T18:14:21.419Z,0
2022-11-12T18:19:23.292Z,0
2022-11-12T18:24:25.410Z,0
2022-11-12T18:29:27.234Z,0
2022-11-12T18:34:28.935Z,0
2022-11-12T18:39:31.532Z,0
2022-11-12T18:44:33.345Z,0
2022-11-12T18:49:35.359Z,0
2022-11-12T18:54:37.581Z,0
2022-11-12T18:59:40.400Z,0
2022-11-12T19:04:45.366Z,0
2022-11-12T19:09:47.939Z,0
2022-11-12T19:14:50.222Z,0
2022-11-12T19:19:52.324Z,0
2022-11-12T19:24:54.246Z,0
2022-11-12T19:29:59.935Z,0
2022-11-12T19:35:05.031Z,0
2022-11-12T19:40:07.016Z,0
2022-11-12T19:45:08.625Z,0
2022-11-12T19:52:07.379Z,0
2022-11-12T19:57:09.305Z,0
2022-11-12T20:02:11.029Z,0
2022-11-12T20:07:12.664Z,0
2022-11-12T20:12:14.888Z,0
2022-11-12T20:17:16.474Z,0
2022-11-12T20:22:18.081Z,0
2022-11-12T20:27:20.849Z,0
2022-11-12T20:32:22.531Z,0
2022-11-12T20:37:24.235Z,0
2022-11-12T20:42:26.250Z,0
2022-11-12T20:47:33.939Z,0
2022-11-12T20:52:35.974Z,0
2022-11-12T20:57:37.775Z,0
2022-11-12T21:02:39.437Z,0
2022-11-12T21:07:43.171Z,0
2022-11-12T21:12:45.247Z,0
2022-11-12T21:17:47.208Z,0
2022-11-12T21:22:49.126Z,0
2022-11-12T21:27:50.919Z,0
2022-11-12T21:32:52.771Z,0
2022-11-12T21:38:26.314Z,0
2022-11-12T21:43:29.093Z,0
2022-11-12T21:48:32.380Z,0
2022-11-12T21:53:33.923Z,0
2022-11-12T21:58:36.491Z,0
2022-11-12T22:03:38.929Z,0
2022-11-12T22:08:40.415Z,0
2022-11-12T22:13:42.249Z,0
2022-11-12T22:18:44.465Z,0
2022-11-12T22:23:46.388Z,0
2022-11-12T22:28:48.015Z,0
2022-11-12T22:33:49.515Z,0
2022-11-12T22:38:51.215Z,0
2022-11-12T22:43:52.952Z,0
2022-11-12T22:48:54.483Z,0
2022-11-12T22:53:55.986Z,0
2022-11-12T22:58:57.645Z,0
2022-11-12T23:03:59.318Z,0
2022-11-12T23:09:00.745Z,0
2022-11-12T23:14:02.568Z,0
2022-11-12T23:19:04.066Z,0
2022-11-12T23:24:05.751Z,0
2022-11-12T23:29:07.549Z,0
2022-11-12T23:34:09.042Z,0
2022-11-12T23:39:10.488Z,0
2022-11-12T23:44:12.816Z,0
2022-11-12T23:49:14.778Z,0
2022-11-12T23:54:16.327Z,0
2022-11-12T23:59:18.580Z,0
